Mount Washington, Pennsylvania
Current Conditions -  °F | °C
As of 9:53 PM on Friday 21 Nov 2014 (Local Time) from KAGC Reporting Station
Clear Clear  
Wind Chill: 13°   Ceiling: Unl
Heat Index: 21°   Visibility: 10mi
Dew Point:   Wind: 6mph
Humidity: 53%   Direction: 170°S
Pressure: 30.43"   Gusts: NA
Location:  40.4305°N, 80.015°W
Report Text: KAGC 220253Z 17005KT 10SM CLR M06/M14 A3043 RMK AO2 SLP331 T10611144 58006
Loading
Personal Weather Stations






























Interactive Weather Map New forecast layout! Learn more

10-Day Weather Forecast

Advertisements
Track Severe Weather on mobile